createdAt,value
2023-05-02T00:00:52.301Z,12.10
2023-05-02T00:03:19.382Z,12.10
2023-05-02T00:05:46.432Z,12.00
2023-05-02T00:08:13.528Z,12.10
2023-05-02T00:10:40.607Z,12.00
2023-05-02T00:13:09.354Z,12.00
2023-05-02T00:15:36.321Z,12.00
2023-05-02T00:18:03.322Z,12.00
2023-05-02T00:20:30.288Z,12.00
2023-05-02T00:22:57.483Z,12.00
2023-05-02T00:25:24.406Z,12.00
2023-05-02T00:27:51.483Z,12.00
2023-05-02T00:30:18.728Z,12.00
2023-05-02T00:32:46.128Z,11.90
2023-05-02T00:35:13.176Z,11.90
2023-05-02T00:37:40.270Z,11.90
2023-05-02T00:40:08.879Z,11.90
2023-05-02T00:42:36.658Z,11.90
2023-05-02T00:45:06.815Z,11.90
2023-05-02T00:47:34.546Z,11.80
2023-05-02T00:50:02.643Z,11.80
2023-05-02T00:52:29.876Z,11.80
2023-05-02T00:54:57.005Z,11.70
2023-05-02T00:57:24.133Z,11.70
2023-05-02T00:59:51.387Z,11.70
2023-05-02T01:02:21.579Z,11.70
2023-05-02T01:05:07.195Z,11.70
2023-05-02T01:07:49.336Z,11.70
2023-05-02T01:10:34.754Z,11.70
2023-05-02T01:13:13.917Z,11.60
2023-05-02T01:15:42.010Z,11.60
2023-05-02T01:18:13.207Z,11.60
2023-05-02T01:20:41.986Z,11.60
2023-05-02T01:23:25.890Z,11.60
2023-05-02T01:26:02.493Z,11.50
2023-05-02T01:28:36.626Z,11.50
2023-05-02T01:31:04.521Z,11.50
2023-05-02T01:33:32.013Z,11.50
2023-05-02T01:36:00.931Z,11.50
2023-05-02T01:38:28.633Z,11.50
2023-05-02T01:40:57.098Z,11.40
2023-05-02T01:43:24.598Z,11.40
2023-05-02T01:45:53.448Z,11.30
2023-05-02T01:48:21.132Z,11.30
2023-05-02T01:50:48.987Z,11.30
2023-05-02T01:53:16.616Z,11.20
2023-05-02T01:55:44.730Z,11.20
2023-05-02T01:58:14.255Z,11.20
2023-05-02T02:00:42.067Z,11.10
2023-05-02T02:03:09.545Z,11.10
2023-05-02T02:05:37.239Z,11.10
2023-05-02T02:08:06.947Z,11.00
2023-05-02T02:10:41.098Z,11.00
2023-05-02T02:13:28.701Z,11.00
2023-05-02T02:15:59.232Z,11.00
2023-05-02T02:18:27.812Z,10.90
2023-05-02T02:20:55.469Z,11.00
2023-05-02T02:23:23.483Z,10.90
2023-05-02T02:25:54.492Z,10.90
2023-05-02T02:28:21.778Z,10.90
2023-05-02T02:30:51.647Z,10.90
2023-05-02T02:33:19.600Z,10.90
2023-05-02T02:35:53.921Z,10.90
2023-05-02T02:38:27.144Z,10.90
2023-05-02T02:40:56.411Z,10.90
2023-05-02T02:43:41.660Z,10.90
2023-05-02T02:46:09.528Z,10.90
2023-05-02T02:48:42.310Z,10.90
2023-05-02T02:51:09.682Z,10.90
2023-05-02T02:53:56.874Z,10.90
2023-05-02T02:56:43.987Z,10.90
2023-05-02T02:59:17.202Z,10.90
2023-05-02T03:01:46.951Z,10.80
2023-05-02T03:04:16.321Z,10.80
2023-05-02T03:06:43.409Z,10.80
2023-05-02T03:09:20.010Z,10.80
2023-05-02T03:11:49.031Z,10.80
2023-05-02T03:14:16.011Z,10.80
2023-05-02T03:16:43.228Z,10.80
2023-05-02T03:19:14.927Z,10.80
2023-05-02T03:21:41.875Z,10.80
2023-05-02T03:24:19.011Z,10.70
2023-05-02T03:26:47.768Z,10.70
2023-05-02T03:29:17.267Z,10.80
2023-05-02T03:31:44.357Z,10.80
2023-05-02T03:34:12.180Z,10.80
2023-05-02T03:36:39.328Z,10.70
2023-05-02T03:39:06.998Z,10.70
2023-05-02T03:41:35.069Z,10.70
2023-05-02T03:44:07.044Z,10.70
2023-05-02T03:46:34.446Z,10.70
2023-05-02T03:49:03.800Z,10.70
2023-05-02T03:51:30.760Z,10.70
2023-05-02T03:54:02.859Z,10.70
2023-05-02T03:56:29.784Z,10.70
2023-05-02T03:59:12.057Z,10.70
2023-05-02T04:01:39.209Z,10.70
2023-05-02T04:04:07.151Z,10.70
2023-05-02T04:06:38.405Z,10.70
2023-05-02T04:09:07.571Z,10.70
2023-05-02T04:11:42.077Z,10.60
2023-05-02T04:14:10.851Z,10.60
2023-05-02T04:16:38.107Z,10.60
2023-05-02T04:19:05.089Z,10.60
2023-05-02T04:21:32.810Z,10.60
2023-05-02T04:24:00.192Z,10.60
2023-05-02T04:26:29.266Z,10.60
2023-05-02T04:29:02.840Z,10.50
2023-05-02T04:31:30.440Z,10.50
2023-05-02T04:33:57.729Z,10.50
2023-05-02T04:36:28.652Z,10.50
2023-05-02T04:38:55.648Z,10.60
2023-05-02T04:41:23.549Z,10.50
2023-05-02T04:43:58.589Z,10.50
2023-05-02T04:46:25.964Z,10.50
2023-05-02T04:48:59.836Z,10.50
2023-05-02T04:51:28.073Z,10.50
2023-05-02T04:53:55.850Z,10.50
2023-05-02T04:56:22.945Z,10.40
2023-05-02T04:58:50.236Z,10.40
2023-05-02T05:01:17.330Z,10.40
2023-05-02T05:03:46.271Z,10.40
2023-05-02T05:06:15.763Z,10.40
2023-05-02T05:08:45.665Z,10.40
2023-05-02T05:11:13.567Z,10.40
2023-05-02T05:13:42.101Z,10.40
2023-05-02T05:16:14.773Z,10.40
2023-05-02T05:18:43.557Z,10.40
2023-05-02T05:21:13.018Z,10.40
2023-05-02T05:23:45.976Z,10.40
2023-05-02T05:26:16.544Z,10.40
2023-05-02T05:28:46.435Z,10.40
2023-05-02T05:31:17.890Z,10.40
2023-05-02T05:33:48.802Z,10.40
2023-05-02T05:36:16.488Z,10.40
2023-05-02T05:38:43.657Z,10.30
2023-05-02T05:41:16.682Z,10.40
2023-05-02T05:43:47.989Z,10.30
2023-05-02T05:46:15.151Z,10.30
2023-05-02T05:48:42.199Z,10.30
2023-05-02T05:51:10.258Z,10.30
2023-05-02T05:53:37.337Z,10.30
2023-05-02T05:56:13.280Z,10.30
2023-05-02T05:58:49.826Z,10.30
2023-05-02T06:01:17.096Z,10.40
2023-05-02T06:03:44.512Z,10.30
2023-05-02T06:06:12.304Z,10.30
2023-05-02T06:08:39.342Z,10.30
2023-05-02T06:11:10.832Z,10.30
2023-05-02T06:13:38.485Z,10.30
2023-05-02T06:16:06.715Z,10.30
2023-05-02T06:18:33.997Z,10.30
2023-05-02T06:21:05.111Z,10.30
2023-05-02T06:23:33.431Z,10.30
2023-05-02T06:26:01.144Z,10.30
2023-05-02T06:28:37.312Z,10.30
2023-05-02T06:31:06.072Z,10.30
2023-05-02T06:33:33.763Z,10.30
2023-05-02T06:36:01.935Z,10.30
2023-05-02T06:38:29.719Z,10.30
2023-05-02T06:40:56.645Z,10.30
2023-05-02T06:43:23.765Z,10.30
2023-05-02T06:45:52.809Z,10.30
2023-05-02T06:48:19.712Z,10.30
2023-05-02T06:50:46.680Z,10.30
2023-05-02T06:53:13.624Z,10.30
2023-05-02T06:55:41.031Z,10.30
2023-05-02T06:58:08.381Z,10.30
2023-05-02T07:00:35.317Z,10.40
2023-05-02T07:03:02.440Z,10.30
2023-05-02T07:05:29.904Z,10.40
2023-05-02T07:07:56.899Z,10.40
2023-05-02T07:10:23.855Z,10.40
2023-05-02T07:12:50.807Z,10.40
2023-05-02T07:15:18.307Z,10.40
2023-05-02T07:17:47.773Z,10.50
2023-05-02T07:20:15.778Z,10.50
2023-05-02T07:22:43.085Z,10.50
2023-05-02T07:25:10.197Z,10.50
2023-05-02T07:27:37.121Z,10.50
2023-05-02T07:30:04.417Z,10.60
2023-05-02T07:32:31.652Z,10.60
2023-05-02T07:34:58.757Z,10.70
2023-05-02T07:37:25.647Z,10.70
2023-05-02T07:39:52.595Z,10.80
2023-05-02T07:42:19.629Z,10.80
2023-05-02T07:44:46.608Z,10.90
2023-05-02T07:47:13.477Z,10.90
2023-05-02T07:49:40.566Z,11.00
2023-05-02T07:52:07.423Z,11.00
2023-05-02T07:54:34.284Z,11.10
2023-05-02T07:57:03.498Z,11.10
2023-05-02T07:59:31.157Z,11.10
2023-05-02T08:01:58.155Z,11.10
2023-05-02T08:04:25.403Z,11.10
2023-05-02T08:06:52.620Z,11.20
2023-05-02T08:09:19.592Z,11.20
2023-05-02T08:11:46.680Z,11.20
2023-05-02T08:14:21.280Z,11.20
2023-05-02T08:16:51.054Z,11.30
2023-05-02T08:19:17.952Z,11.30
2023-05-02T08:21:45.094Z,11.30
2023-05-02T08:24:12.058Z,11.30
2023-05-02T08:26:39.028Z,11.30
2023-05-02T08:29:06.053Z,11.30
2023-05-02T08:31:33.642Z,11.40
2023-05-02T08:34:00.841Z,11.40
2023-05-02T08:36:28.926Z,11.40
2023-05-02T08:38:55.765Z,11.40
2023-05-02T08:41:25.649Z,11.40
2023-05-02T08:43:52.829Z,11.40
2023-05-02T08:46:22.707Z,11.40
2023-05-02T08:48:50.728Z,11.40
2023-05-02T08:53:45.314Z,11.40
2023-05-02T08:56:12.821Z,11.40
2023-05-02T08:58:42.764Z,11.40
2023-05-02T09:01:12.526Z,11.40
2023-05-02T09:03:39.741Z,11.40
2023-05-02T09:06:20.683Z,11.40
2023-05-02T09:08:49.633Z,11.40
2023-05-02T09:11:17.586Z,11.40
2023-05-02T09:13:45.353Z,11.40
2023-05-02T09:16:13.707Z,11.50
2023-05-02T09:18:44.525Z,11.60
2023-05-02T09:21:12.870Z,11.60
2023-05-02T09:23:39.962Z,11.80
2023-05-02T09:26:17.484Z,11.80
2023-05-02T09:28:44.384Z,11.90
2023-05-02T09:31:12.675Z,12.00
2023-05-02T09:33:39.817Z,12.10
2023-05-02T09:36:07.631Z,12.10
2023-05-02T09:38:34.891Z,12.20
2023-05-02T09:41:05.713Z,12.20
2023-05-02T09:43:33.266Z,12.20
2023-05-02T09:46:12.287Z,12.30
2023-05-02T09:48:54.559Z,12.40
2023-05-02T09:51:21.932Z,12.60
2023-05-02T09:53:49.041Z,12.80
2023-05-02T09:56:16.329Z,13.00
2023-05-02T09:58:43.292Z,13.30
2023-05-02T10:01:17.197Z,13.60
2023-05-02T10:03:47.226Z,13.80
2023-05-02T10:06:15.614Z,14.10
2023-05-02T10:08:43.534Z,14.30
2023-05-02T10:11:14.014Z,14.40
2023-05-02T10:13:42.894Z,14.50
2023-05-02T10:16:12.093Z,14.60
2023-05-02T10:18:52.735Z,14.60
2023-05-02T10:21:24.331Z,14.60
2023-05-02T10:23:53.404Z,14.50
2023-05-02T10:26:26.316Z,14.40
2023-05-02T10:28:53.961Z,14.40
2023-05-02T10:31:21.645Z,14.40
2023-05-02T10:33:52.558Z,14.40
2023-05-02T10:36:23.241Z,14.30
2023-05-02T10:38:50.775Z,14.30
2023-05-02T10:41:19.464Z,14.30
2023-05-02T10:43:47.260Z,14.20
2023-05-02T10:46:52.841Z,14.20
2023-05-02T10:49:23.027Z,14.10
2023-05-02T10:51:49.995Z,14.10
2023-05-02T10:54:16.862Z,14.10
2023-05-02T10:57:06.070Z,14.10
2023-05-02T10:59:40.061Z,14.00
2023-05-02T11:02:28.667Z,14.00
2023-05-02T11:05:03.067Z,14.00
2023-05-02T11:07:31.244Z,14.00
2023-05-02T11:10:16.976Z,14.00
2023-05-02T11:12:50.351Z,14.00
2023-05-02T11:15:27.098Z,14.10
2023-05-02T11:18:04.113Z,14.20
2023-05-02T11:20:32.395Z,14.30
2023-05-02T11:23:00.423Z,14.40
2023-05-02T11:25:31.305Z,14.60
2023-05-02T11:27:58.332Z,14.80
2023-05-02T11:30:37.616Z,15.00
2023-05-02T11:33:04.786Z,15.20
2023-05-02T11:35:31.947Z,15.30
2023-05-02T11:38:03.284Z,15.30
2023-05-02T11:40:33.124Z,15.40
2023-05-02T11:43:01.111Z,15.50
2023-05-02T11:45:36.421Z,15.60
2023-05-02T11:48:04.765Z,15.60
2023-05-02T11:50:31.918Z,15.70
2023-05-02T11:52:58.774Z,15.90
2023-05-02T11:55:25.807Z,16.00
2023-05-02T11:57:52.761Z,16.20
2023-05-02T12:00:19.728Z,16.30
2023-05-02T12:02:47.969Z,16.40
2023-05-02T12:05:15.428Z,16.50
2023-05-02T12:07:44.916Z,16.50
2023-05-02T12:10:12.881Z,16.60
2023-05-02T12:12:40.950Z,16.60
2023-05-02T12:15:08.846Z,16.70
2023-05-02T12:17:40.539Z,16.70
2023-05-02T12:20:09.007Z,16.70
2023-05-02T12:22:36.256Z,16.70
2023-05-02T12:25:04.717Z,16.70
2023-05-02T12:27:33.485Z,16.70
2023-05-02T12:30:00.662Z,16.70
2023-05-02T12:32:32.166Z,16.70
2023-05-02T12:34:59.563Z,16.70
2023-05-02T12:37:29.744Z,16.80
2023-05-02T12:39:56.867Z,16.80
2023-05-02T12:42:25.622Z,16.80
2023-05-02T12:44:53.374Z,16.80
2023-05-02T12:47:21.658Z,16.90
2023-05-02T12:49:48.740Z,16.90
2023-05-02T12:52:15.713Z,16.90
2023-05-02T12:54:43.573Z,17.00
2023-05-02T12:57:21.137Z,17.00
2023-05-02T12:59:48.009Z,17.10
2023-05-02T13:02:14.952Z,17.20
2023-05-02T13:04:42.221Z,17.30
2023-05-02T13:07:09.153Z,17.30
2023-05-02T13:09:36.227Z,17.40
2023-05-02T13:12:06.223Z,17.40
2023-05-02T13:14:33.147Z,17.40
2023-05-02T13:17:00.246Z,17.30
2023-05-02T13:19:31.061Z,17.30
2023-05-02T13:21:58.032Z,17.20
2023-05-02T13:24:24.929Z,17.10
2023-05-02T13:26:52.024Z,17.10
2023-05-02T13:29:19.038Z,17.00
2023-05-02T13:31:45.824Z,17.00
2023-05-02T13:34:12.744Z,17.00
2023-05-02T13:36:46.270Z,16.90
2023-05-02T13:39:15.891Z,16.80
2023-05-02T13:41:42.837Z,16.80
2023-05-02T13:44:10.058Z,16.70
2023-05-02T13:46:37.859Z,16.70
2023-05-02T13:49:05.334Z,16.60
2023-05-02T13:51:32.639Z,16.60
2023-05-02T13:53:59.984Z,16.60
2023-05-02T13:56:27.002Z,16.50
2023-05-02T13:58:53.941Z,16.40
2023-05-02T14:01:20.829Z,16.40
2023-05-02T14:03:47.814Z,16.30
2023-05-02T14:06:14.857Z,16.20
2023-05-02T14:08:41.836Z,16.10
2023-05-02T14:11:08.694Z,16.00
2023-05-02T14:13:35.721Z,16.00
2023-05-02T14:16:02.981Z,15.90
2023-05-02T14:18:29.934Z,15.80
2023-05-02T14:21:00.008Z,15.80
2023-05-02T14:23:29.825Z,15.70
2023-05-02T14:25:56.847Z,15.60
2023-05-02T14:28:23.780Z,15.50
2023-05-02T14:30:51.257Z,15.50
2023-05-02T14:33:18.164Z,15.40
2023-05-02T14:35:45.845Z,15.30
2023-05-02T14:38:12.731Z,15.30
2023-05-02T14:40:39.628Z,15.20
2023-05-02T14:43:07.271Z,15.20
2023-05-02T14:45:34.357Z,15.20
2023-05-02T14:48:01.629Z,15.20
2023-05-02T14:50:28.610Z,15.20
2023-05-02T14:52:55.505Z,15.20
2023-05-02T14:55:22.326Z,15.20
2023-05-02T14:57:49.375Z,15.20
2023-05-02T15:00:16.625Z,15.20
2023-05-02T15:02:43.641Z,15.10
2023-05-02T15:05:12.627Z,15.10
2023-05-02T15:07:39.870Z,15.20
2023-05-02T15:10:07.045Z,15.20
2023-05-02T15:12:34.044Z,15.10
2023-05-02T15:15:01.115Z,15.10
2023-05-02T15:17:28.057Z,15.10
2023-05-02T15:19:57.035Z,15.20
2023-05-02T15:22:26.165Z,15.20
2023-05-02T15:24:53.490Z,15.20
2023-05-02T15:27:20.558Z,15.20
2023-05-02T15:29:47.477Z,15.20
2023-05-02T15:32:14.453Z,15.20
2023-05-02T15:34:41.455Z,15.20
2023-05-02T15:37:08.448Z,15.10
2023-05-02T15:39:35.409Z,15.20
2023-05-02T15:42:05.783Z,15.10
2023-05-02T15:44:34.831Z,15.10
2023-05-02T15:47:01.730Z,15.10
2023-05-02T15:49:33.050Z,15.10
2023-05-02T15:52:00.281Z,15.00
2023-05-02T15:54:27.242Z,15.00
2023-05-02T15:56:54.152Z,14.90
2023-05-02T15:59:21.071Z,14.80
2023-05-02T16:01:47.978Z,14.70
2023-05-02T16:04:15.585Z,14.60
2023-05-02T16:06:42.615Z,14.60
2023-05-02T16:09:10.225Z,14.60
2023-05-02T16:11:37.150Z,14.50
2023-05-02T16:14:04.115Z,14.50
2023-05-02T16:16:31.137Z,14.50
2023-05-02T16:18:58.173Z,14.50
2023-05-02T16:21:25.072Z,14.40
2023-05-02T16:23:52.363Z,14.50
2023-05-02T16:26:20.867Z,14.40
2023-05-02T16:28:47.752Z,14.40
2023-05-02T16:31:15.282Z,14.40
2023-05-02T16:33:43.050Z,14.40
2023-05-02T16:36:10.313Z,14.40
2023-05-02T16:38:37.282Z,14.40
2023-05-02T16:41:07.014Z,14.40
2023-05-02T16:43:34.246Z,14.40
2023-05-02T16:46:01.845Z,14.40
2023-05-02T16:48:28.879Z,14.30
2023-05-02T16:50:55.989Z,14.30
2023-05-02T16:53:23.148Z,14.30
2023-05-02T16:55:50.149Z,14.30
2023-05-02T16:58:17.160Z,14.30
2023-05-02T17:00:44.104Z,14.30
2023-05-02T17:03:11.382Z,14.30
2023-05-02T17:05:38.431Z,14.30
2023-05-02T17:08:09.865Z,14.20
2023-05-02T17:10:38.028Z,14.20
2023-05-02T17:13:05.019Z,14.20
2023-05-02T17:15:38.620Z,14.20
2023-05-02T17:18:08.203Z,14.20
2023-05-02T17:20:36.083Z,14.20
2023-05-02T17:23:03.153Z,14.20
2023-05-02T17:25:30.634Z,14.10
2023-05-02T17:27:57.620Z,14.10
2023-05-02T17:30:25.332Z,14.10
2023-05-02T17:32:52.303Z,14.10
2023-05-02T17:35:19.322Z,14.00
2023-05-02T17:37:46.333Z,14.00
2023-05-02T17:40:13.265Z,14.00
2023-05-02T17:42:42.371Z,14.00
2023-05-02T17:45:09.804Z,13.90
2023-05-02T17:47:36.728Z,13.90
2023-05-02T17:50:05.138Z,13.90
2023-05-02T17:52:34.387Z,13.90
2023-05-02T17:55:01.851Z,13.80
2023-05-02T17:57:28.788Z,13.80
2023-05-02T17:59:59.866Z,13.70
2023-05-02T18:02:27.674Z,13.70
2023-05-02T18:04:54.921Z,13.60
2023-05-02T18:07:24.921Z,13.60
2023-05-02T18:09:56.668Z,13.60
2023-05-02T18:12:24.165Z,13.60
2023-05-02T18:14:52.674Z,13.60
2023-05-02T18:17:20.991Z,13.60
2023-05-02T18:19:50.376Z,13.50
2023-05-02T18:22:19.853Z,13.50
2023-05-02T18:24:47.221Z,13.50
2023-05-02T18:27:14.470Z,13.50
2023-05-02T18:29:41.494Z,13.50
2023-05-02T18:32:08.562Z,13.50
2023-05-02T18:34:38.309Z,13.50
2023-05-02T18:37:07.012Z,13.50
2023-05-02T18:39:34.195Z,13.50
2023-05-02T18:42:03.041Z,13.40
2023-05-02T18:44:30.398Z,13.40
2023-05-02T18:47:02.336Z,13.50
2023-05-02T18:49:32.386Z,13.40
2023-05-02T18:51:59.393Z,13.40
2023-05-02T18:54:27.870Z,13.30
2023-05-02T18:56:54.805Z,13.30
2023-05-02T18:59:21.994Z,13.30
2023-05-02T19:01:48.985Z,13.30
2023-05-02T19:04:16.024Z,13.20
2023-05-02T19:06:43.084Z,13.20
2023-05-02T19:09:12.689Z,13.10
2023-05-02T19:11:40.527Z,13.10
2023-05-02T19:14:07.825Z,13.10
2023-05-02T19:16:40.868Z,13.10
2023-05-02T19:19:08.130Z,13.00
2023-05-02T19:21:35.019Z,13.00
2023-05-02T19:24:02.056Z,13.00
2023-05-02T19:26:29.107Z,12.90
2023-05-02T19:28:57.133Z,13.00
2023-05-02T19:31:25.163Z,12.90
2023-05-02T19:33:52.326Z,12.90
2023-05-02T19:36:23.425Z,12.80
2023-05-02T19:38:52.183Z,12.80
2023-05-02T19:41:19.299Z,12.80
2023-05-02T19:43:48.460Z,12.70
2023-05-02T19:46:15.864Z,12.70
2023-05-02T19:48:43.112Z,12.60
2023-05-02T19:51:16.074Z,12.60
2023-05-02T19:53:44.183Z,12.60
2023-05-02T19:56:11.269Z,12.60
2023-05-02T19:58:38.280Z,12.60
2023-05-02T20:01:05.334Z,12.50
2023-05-02T20:03:34.724Z,12.50
2023-05-02T20:06:02.028Z,12.50
2023-05-02T20:08:29.565Z,12.50
2023-05-02T20:10:57.093Z,12.50
2023-05-02T20:13:24.058Z,12.40
2023-05-02T20:15:51.900Z,12.40
2023-05-02T20:18:18.988Z,12.40
2023-05-02T20:20:47.724Z,12.40
2023-05-02T20:23:15.041Z,12.40
2023-05-02T20:25:42.909Z,12.30
2023-05-02T20:28:10.191Z,12.30
2023-05-02T20:30:51.463Z,12.30
2023-05-02T20:33:27.620Z,12.30
2023-05-02T20:36:09.026Z,12.20
2023-05-02T20:38:43.051Z,12.20
2023-05-02T20:41:12.636Z,12.10
2023-05-02T20:43:40.256Z,12.10
2023-05-02T20:46:16.301Z,12.10
2023-05-02T20:48:43.527Z,12.10
2023-05-02T20:51:10.438Z,12.00
2023-05-02T20:53:38.048Z,12.00
2023-05-02T20:56:05.303Z,12.00
2023-05-02T20:58:32.437Z,11.90
2023-05-02T21:01:46.603Z,11.90
2023-05-02T21:04:13.518Z,11.90
2023-05-02T21:06:40.674Z,11.90
2023-05-02T21:09:09.342Z,11.90
2023-05-02T21:11:36.361Z,11.80
2023-05-02T21:14:03.340Z,11.80
2023-05-02T21:16:33.150Z,11.80
2023-05-02T21:19:00.128Z,11.70
2023-05-02T21:21:27.082Z,11.70
2023-05-02T21:23:54.019Z,11.70
2023-05-02T21:26:21.074Z,11.70
2023-05-02T21:28:57.907Z,11.60
2023-05-02T21:31:25.185Z,11.60
2023-05-02T21:33:52.510Z,11.60
2023-05-02T21:36:19.777Z,11.50
2023-05-02T21:38:46.628Z,11.50
2023-05-02T21:41:13.580Z,11.50
2023-05-02T21:43:40.648Z,11.50
2023-05-02T21:46:07.871Z,11.50
2023-05-02T21:48:34.795Z,11.40
2023-05-02T21:51:05.853Z,11.40
2023-05-02T21:53:32.804Z,11.40
2023-05-02T21:55:59.664Z,11.40
2023-05-02T21:58:26.760Z,11.30
2023-05-02T22:00:53.759Z,11.30
2023-05-02T22:03:21.293Z,11.30
2023-05-02T22:05:48.425Z,11.30
2023-05-02T22:08:15.407Z,11.30
2023-05-02T22:10:43.053Z,11.20
2023-05-02T22:13:12.355Z,11.20
2023-05-02T22:15:43.124Z,11.20
2023-05-02T22:18:10.570Z,11.10
2023-05-02T22:20:40.980Z,11.10
2023-05-02T22:23:08.059Z,11.10
2023-05-02T22:25:36.841Z,11.10
2023-05-02T22:28:07.028Z,11.10
2023-05-02T22:30:34.617Z,11.00
2023-05-02T22:33:06.136Z,11.00
2023-05-02T22:35:33.709Z,11.00
2023-05-02T22:38:04.093Z,11.00
2023-05-02T22:40:31.521Z,11.00
2023-05-02T22:42:58.996Z,11.00
2023-05-02T22:45:27.097Z,11.00
2023-05-02T22:47:54.199Z,11.00
2023-05-02T22:50:21.577Z,11.00
2023-05-02T22:52:49.435Z,10.90
2023-05-02T22:55:16.548Z,10.90
2023-05-02T22:57:43.748Z,10.90
2023-05-02T23:00:11.282Z,10.80
2023-05-02T23:02:38.732Z,10.80
2023-05-02T23:05:07.045Z,10.80
2023-05-02T23:07:34.765Z,10.80
2023-05-02T23:10:01.955Z,10.80
2023-05-02T23:12:29.811Z,10.70
2023-05-02T23:14:57.104Z,10.70
2023-05-02T23:17:24.086Z,10.70
2023-05-02T23:19:51.007Z,10.70
2023-05-02T23:22:18.027Z,10.70
2023-05-02T23:24:45.586Z,10.60
2023-05-02T23:27:12.699Z,10.60
2023-05-02T23:29:39.831Z,10.60
2023-05-02T23:32:08.214Z,10.60
2023-05-02T23:34:38.609Z,10.50
2023-05-02T23:37:06.901Z,10.50
2023-05-02T23:39:35.254Z,10.50
2023-05-02T23:42:03.871Z,10.50
2023-05-02T23:44:31.362Z,10.40
2023-05-02T23:46:59.444Z,10.40
2023-05-02T23:49:26.980Z,10.40
2023-05-02T23:51:53.988Z,10.40
2023-05-02T23:54:21.113Z,10.30
2023-05-02T23:56:48.246Z,10.30
2023-05-02T23:59:15.395Z,10.30
